Terminal Aerodrome Forecast
Issued by NWS

Home | Current Version | Previous Version | Text Only | Print | Product List | Glossary On
Versions: 1 2 3 4 5 6 7 8 9 10 11 12 13 14 15 16 17 18
000
FTUS41 KOKX 211700
TAFHPN
TAF
KHPN 211731Z 2118/2218 15008KT P6SM VCSH FEW040 BKN060
     FM220100 VRB05KT P6SM SCT020 BKN040
     FM221000 VRB02KT 5SM BR VCSH BKN020 OVC040
     FM221600 11005KT 4SM HZ BKN030
      AMD NOT SKED=

USA.gov is the U.S. government's official web portal to all federal, state and local government web resources and services.